Time;durP1;ratioP1;P1;durP2;ratioP2;P2;SDS_P1;SDS_P2;PMS_P1;PMS_P2;Temp;Humidity;BMP_temperature;BMP_pressure;BME280_temperature;BME280_humidity;BME280_pressure;Samples;Min_cycle;Max_cycle;Signal;HPM_P1;HPM_P2
2023/07/13 00:02:16;;;;;;;16.27;13.98;;;;;;;27.10;100.00;97516.06;4831516;29;20054;-67
2023/07/13 00:04:45;;;;;;;18.38;14.88;;;;;;;27.19;100.00;97508.66;4829559;29;20054;-67
2023/07/13 00:07:14;;;;;;;18.45;15.27;;;;;;;27.17;100.00;97513.63;4840854;29;20064;-66
2023/07/13 00:09:44;;;;;;;19.17;15.88;;;;;;;27.05;100.00;97511.59;4814859;29;20068;-66
2023/07/13 00:12:34;;;;;;;18.20;16.30;;;;;;;27.08;100.00;97513.69;4839181;29;20058;-66
2023/07/13 00:15:22;;;;;;;16.88;15.15;;;;;;;27.15;100.00;97515.88;4813285;29;20081;-67
2023/07/13 00:17:54;;;;;;;19.58;16.58;;;;;;;27.16;100.00;97518.28;4833581;29;20042;-66
2023/07/13 00:20:25;;;;;;;19.33;17.10;;;;;;;27.16;100.00;97528.34;4817214;29;20058;-66
2023/07/13 00:22:54;;;;;;;19.90;15.48;;;;;;;27.23;100.00;97525.91;4821881;29;20060;-67
2023/07/13 00:25:27;;;;;;;18.83;16.42;;;;;;;27.29;100.00;97530.03;4842133;29;20486;-67
2023/07/13 00:27:57;;;;;;;;;;;;;;;27.23;100.00;97534.06;4827392;29;20153;-66
2023/07/13 00:30:26;;;;;;;17.67;15.18;;;;;;;27.32;100.00;97534.00;4808679;29;19928;-66
2023/07/13 00:32:59;;;;;;;23.98;16.17;;;;;;;27.35;100.00;97534.13;4835141;29;20050;-66
2023/07/13 00:35:44;;;;;;;21.77;18.38;;;;;;;27.34;100.00;97538.00;4821376;29;20061;-67
2023/07/13 00:38:13;;;;;;;23.45;18.45;;;;;;;27.29;100.00;97540.09;4837803;29;20480;-66
2023/07/13 00:40:43;;;;;;;23.45;18.92;;;;;;;27.30;100.00;97542.50;4815286;29;20061;-67
2023/07/13 00:43:19;;;;;;;23.48;18.85;;;;;;;27.22;100.00;97540.59;4807137;29;20054;-66
2023/07/13 00:45:49;;;;;;;22.10;18.52;;;;;;;27.29;100.00;97546.34;4843561;29;20049;-66
2023/07/13 00:48:32;;;;;;;23.83;19.42;;;;;;;27.13;100.00;97548.03;4828895;29;20105;-67
2023/07/13 00:51:02;;;;;;;25.58;19.80;;;;;;;27.13;100.00;97548.03;4824437;29;20204;-66
2023/07/13 00:53:34;;;;;;;22.17;18.83;;;;;;;27.08;100.00;97551.75;4822686;29;20136;-67
2023/07/13 00:56:05;;;;;;;21.75;18.27;;;;;;;27.25;100.00;97557.09;4819540;29;20061;-67
2023/07/13 00:58:35;;;;;;;21.90;16.73;;;;;;;27.30;100.00;97561.53;4831609;29;20073;-66
2023/07/13 01:01:06;;;;;;;27.63;17.38;;;;;;;27.32;100.00;97556.56;4831184;29;20066;-67
2023/07/13 01:03:35;;;;;;;17.85;15.25;;;;;;;27.34;100.00;97559.75;4835905;29;20479;-66
2023/07/13 01:06:05;;;;;;;17.33;14.35;;;;;;;27.31;100.00;97554.97;4816903;29;20133;-67
2023/07/13 01:08:35;;;;;;;17.70;13.63;;;;;;;27.40;100.00;97552.19;4841730;29;20072;-67
2023/07/13 01:11:04;;;;;;;16.63;13.85;;;;;;;27.39;100.00;97550.63;4806172;29;20054;-67
2023/07/13 01:13:34;;;;;;;18.05;12.93;;;;;;;27.40;100.00;97547.53;4808951;29;20505;-67
2023/07/13 01:16:15;;;;;;;13.55;12.15;;;;;;;27.43;100.00;97541.47;4826624;29;20157;-67
2023/07/13 01:18:44;;;;;;;14.20;11.63;;;;;;;27.41;100.00;97549.13;4821846;29;20074;-66
2023/07/13 01:21:13;;;;;;;12.77;11.48;;;;;;;27.43;100.00;97546.91;4843790;29;20141;-66
2023/07/13 01:23:44;;;;;;;15.60;11.85;;;;;;;27.50;100.00;97552.63;4827079;29;20073;-66
2023/07/13 01:26:14;;;;;;;15.95;11.40;;;;;;;27.52;100.00;97550.41;4825150;29;20137;-66
2023/07/13 01:28:44;;;;;;;13.52;11.57;;;;;;;27.48;100.00;97549.47;4812659;29;20057;-66
2023/07/13 01:31:13;;;;;;;13.35;11.07;;;;;;;27.54;100.00;97548.13;4816577;29;20114;-66
2023/07/13 01:33:43;;;;;;;13.77;11.73;;;;;;;27.62;100.00;97549.19;4845398;29;20050;-67
2023/07/13 01:36:13;;;;;;;13.20;11.85;;;;;;;27.69;100.00;97549.47;4824085;29;20094;-66
2023/07/13 01:38:43;;;;;;;12.82;11.50;;;;;;;27.75;100.00;97556.28;4824177;29;20057;-66
2023/07/13 01:41:12;;;;;;;14.82;11.55;;;;;;;27.81;100.00;97557.69;4821075;29;20157;-67
2023/07/13 01:43:42;;;;;;;16.08;12.20;;;;;;;27.81;100.00;97554.16;4816748;29;20061;-67
2023/07/13 01:46:11;;;;;;;16.45;12.13;;;;;;;28.01;100.00;97565.06;4820423;29;20050;-67
2023/07/13 01:48:44;;;;;;;14.13;11.57;;;;;;;28.16;100.00;97576.47;4836210;29;20045;-66
2023/07/13 01:51:13;;;;;;;13.80;11.48;;;;;;;28.34;100.00;97573.25;4841272;29;20085;-67
2023/07/13 01:53:45;;;;;;;15.10;12.23;;;;;;;28.53;100.00;97576.28;4814621;29;20058;-67
2023/07/13 01:56:15;;;;;;;15.57;12.68;;;;;;;28.64;99.49;97586.72;4824025;29;20583;-67
2023/07/13 01:58:46;;;;;;;15.35;13.02;;;;;;;28.82;98.24;97590.91;4818347;29;20174;-67
2023/07/13 02:01:16;;;;;;;13.82;11.38;;;;;;;29.31;96.18;97599.94;4828246;29;20050;-67
2023/07/13 02:03:47;;;;;;;13.73;12.13;;;;;;;29.72;93.32;97594.22;4811100;29;20129;-67
2023/07/13 02:06:16;;;;;;;19.10;11.43;;;;;;;29.70;92.68;97598.44;4819266;29;20054;-68
2023/07/13 02:08:45;;;;;;;14.50;13.00;;;;;;;29.72;89.29;97604.34;4835930;29;20073;-68
2023/07/13 02:11:15;;;;;;;14.23;12.27;;;;;;;29.64;90.63;97602.56;4835662;29;20554;-68
2023/07/13 02:13:44;;;;;;;13.18;11.80;;;;;;;29.80;89.41;97603.41;4834550;29;20207;-68
2023/07/13 02:16:15;;;;;;;13.98;12.48;;;;;;;30.23;87.97;97598.09;4822099;29;20054;-68
2023/07/13 02:18:45;;;;;;;17.30;13.32;;;;;;;30.43;87.61;97604.50;4820676;29;20086;-68
2023/07/13 02:21:14;;;;;;;17.15;13.02;;;;;;;30.64;84.51;97596.09;4833252;29;20077;-68
2023/07/13 02:23:46;;;;;;;16.27;11.45;;;;;;;31.19;84.89;97600.69;4818607;29;20058;-68
2023/07/13 02:26:16;;;;;;;15.55;12.00;;;;;;;31.34;82.68;97601.81;4844851;29;20050;-68
2023/07/13 02:28:46;;;;;;;12.38;10.75;;;;;;;31.52;79.22;97603.81;4833654;29;20065;-68
2023/07/13 02:31:16;;;;;;;12.68;10.98;;;;;;;31.61;79.51;97609.13;4802962;29;20114;-68
2023/07/13 02:33:46;;;;;;;15.55;11.20;;;;;;;31.65;79.62;97610.00;4805623;29;20058;-68
2023/07/13 02:36:18;;;;;;;11.48;9.63;;;;;;;31.84;76.80;97618.25;4806395;29;20061;-68
2023/07/13 02:38:50;;;;;;;11.52;9.90;;;;;;;31.91;76.63;97620.38;4821140;29;20517;-68
2023/07/13 02:41:22;;;;;;;12.85;9.93;;;;;;;32.12;76.98;97620.06;4834372;29;20663;-67
2023/07/13 02:43:52;;;;;;;12.57;10.38;;;;;;;32.63;77.63;97628.94;4819959;29;20061;-68
2023/07/13 02:46:24;;;;;;;10.32;9.10;;;;;;;32.48;76.33;97625.13;4819496;29;20073;-67
2023/07/13 02:48:56;;;;;;;12.30;9.77;;;;;;;32.87;76.16;97629.41;4819115;29;20054;-67
2023/07/13 02:51:26;;;;;;;9.70;8.75;;;;;;;33.13;74.35;97634.16;4819504;29;20083;-67
2023/07/13 02:53:55;;;;;;;12.68;9.32;;;;;;;32.94;72.65;97629.53;4807728;29;20046;-68
2023/07/13 02:56:27;;;;;;;10.88;9.32;;;;;;;32.67;75.65;97632.53;4833083;29;20058;-67
2023/07/13 02:58:58;;;;;;;11.17;9.93;;;;;;;33.08;72.00;97633.69;4812194;29;20397;-68
2023/07/13 03:01:27;;;;;;;12.82;9.25;;;;;;;33.32;72.39;97638.84;4805534;29;20054;-67
2023/07/13 03:03:56;;;;;;;10.27;8.65;;;;;;;33.39;71.86;97638.94;4816957;29;20809;-68
2023/07/13 03:06:30;;;;;;;9.80;8.52;;;;;;;33.32;72.50;97638.84;4817378;29;20050;-68
2023/07/13 03:09:00;;;;;;;12.82;9.60;;;;;;;32.54;73.21;97638.16;4828576;29;20049;-68
2023/07/13 03:11:31;;;;;;;9.63;8.60;;;;;;;32.84;74.37;97652.06;4818589;29;20061;-68
2023/07/13 03:14:10;;;;;;;8.70;7.85;;;;;;;33.11;72.56;97657.63;4833216;29;20137;-68
2023/07/13 03:16:40;;;;;;;10.77;9.23;;;;;;;32.66;75.26;97656.44;4817969;29;20149;-69
2023/07/13 03:19:10;;;;;;;9.13;8.20;;;;;;;32.71;76.10;97664.34;4835076;29;20157;-68
2023/07/13 03:21:41;;;;;;;11.82;9.13;;;;;;;32.71;75.37;97666.31;4817917;29;20115;-68
2023/07/13 03:24:11;;;;;;;14.00;10.38;;;;;;;32.61;75.53;97675.09;4822993;29;20049;-68
2023/07/13 03:26:40;;;;;;;10.52;9.30;;;;;;;32.18;75.46;97670.66;4801798;29;20123;-68
2023/07/13 03:29:10;;;;;;;11.40;10.18;;;;;;;32.12;76.14;97663.91;4833601;29;20529;-68
2023/07/13 03:31:40;;;;;;;12.52;9.48;;;;;;;32.31;77.39;97663.94;4813748;29;20061;-68
2023/07/13 03:34:10;;;;;;;13.95;10.52;;;;;;;31.91;77.96;97670.44;4821562;29;20050;-68
2023/07/13 03:36:40;;;;;;;11.93;9.73;;;;;;;32.62;77.51;97669.28;4798148;29;20050;-68
2023/07/13 03:39:12;;;;;;;11.95;10.20;;;;;;;32.53;78.22;97674.16;4829020;29;20061;-68
2023/07/13 03:41:54;;;;;;;11.30;9.60;;;;;;;32.53;77.88;97680.44;4801409;29;20048;-68
2023/07/13 03:44:24;;;;;;;12.88;9.98;;;;;;;32.96;76.97;97675.81;4807526;29;20062;-68
2023/07/13 03:46:56;;;;;;;12.02;9.75;;;;;;;32.63;77.92;97679.09;4831121;29;20043;-68
2023/07/13 03:49:26;;;;;;;11.10;9.27;;;;;;;32.29;76.82;97679.94;4832734;29;20050;-68
2023/07/13 03:51:55;;;;;;;12.70;10.18;;;;;;;32.20;78.58;97687.56;4813981;29;20487;-68
2023/07/13 03:54:25;;;;;;;14.85;10.30;;;;;;;31.87;79.06;97683.28;4836374;29;20050;-67
2023/07/13 03:56:55;;;;;;;11.10;9.57;;;;;;;32.13;80.43;97690.94;4807184;29;20066;-68
2023/07/13 03:59:25;;;;;;;13.50;10.35;;;;;;;31.89;78.39;97682.91;4813458;29;20051;-68
2023/07/13 04:01:55;;;;;;;10.55;9.50;;;;;;;32.16;78.74;97684.75;4836773;29;20057;-67
2023/07/13 04:04:25;;;;;;;16.30;10.70;;;;;;;32.46;76.56;97694.00;4809942;29;20050;-66
2023/07/13 04:06:55;;;;;;;11.55;10.35;;;;;;;31.93;79.29;97698.28;4836806;29;20184;-67
2023/07/13 04:09:25;;;;;;;13.30;10.20;;;;;;;31.57;78.40;97691.19;4819781;29;20141;-67
2023/07/13 04:11:55;;;;;;;11.48;9.07;;;;;;;32.17;78.76;97683.59;4798794;29;20077;-68
2023/07/13 04:14:24;;;;;;;11.60;9.15;;;;;;;32.57;75.94;97680.53;4820110;29;20046;-68
2023/07/13 04:16:54;;;;;;;10.05;9.05;;;;;;;32.56;77.39;97678.94;4811934;29;20064;-68
2023/07/13 04:19:23;;;;;;;12.45;9.13;;;;;;;31.87;78.86;97686.00;4816380;29;20365;-68
2023/07/13 04:21:53;;;;;;;12.77;9.18;;;;;;;31.81;79.20;97673.75;4833862;29;20058;-68
2023/07/13 04:24:22;;;;;;;14.13;8.43;;;;;;;32.37;79.77;97676.19;4815832;29;20042;-66
2023/07/13 04:26:51;;;;;;;10.15;8.80;;;;;;;32.56;77.69;97676.19;4813337;29;20531;-67
2023/07/13 04:29:21;;;;;;;9.45;8.10;;;;;;;32.59;77.16;97683.69;4812987;29;21286;-68
2023/07/13 04:31:50;;;;;;;9.18;7.68;;;;;;;32.90;76.35;97683.53;4806141;29;20061;-67
2023/07/13 04:34:20;;;;;;;9.75;8.15;;;;;;;33.33;76.96;97682.38;4834142;29;20042;-68
2023/07/13 04:36:49;;;;;;;9.48;8.13;;;;;;;33.10;74.42;97689.00;4817233;29;20475;-67
2023/07/13 04:39:20;;;;;;;9.93;6.85;;;;;;;32.87;75.82;97689.75;4811048;29;20379;-67
2023/07/13 04:41:50;;;;;;;10.32;8.35;;;;;;;33.21;77.68;97693.53;4834335;29;20061;-67
2023/07/13 04:44:19;;;;;;;10.70;8.60;;;;;;;33.89;72.72;97689.19;4796245;29;20670;-67
2023/07/13 04:46:48;;;;;;;9.60;8.07;;;;;;;33.45;74.07;97688.84;4842705;29;20058;-67
2023/07/13 04:49:17;;;;;;;8.52;7.57;;;;;;;33.41;74.40;97688.81;4803226;29;20638;-66
2023/07/13 04:51:47;;;;;;;11.35;8.82;;;;;;;33.67;72.65;97697.09;4820120;29;20059;-67
2023/07/13 04:54:17;;;;;;;11.07;8.65;;;;;;;33.36;74.12;97692.66;4804128;29;20055;-67
2023/07/13 04:56:46;;;;;;;13.35;9.25;;;;;;;33.50;73.27;97694.03;4813161;29;20142;-68
2023/07/13 04:59:16;;;;;;;10.88;8.95;;;;;;;33.84;72.57;97693.03;4804460;29;20163;-68
2023/07/13 05:01:46;;;;;;;12.90;8.60;;;;;;;34.22;71.82;97697.53;4802941;29;20061;-69
2023/07/13 05:04:15;;;;;;;10.80;8.15;;;;;;;34.64;70.42;97695.34;4830209;29;20758;-68
2023/07/13 05:06:44;;;;;;;9.55;8.05;;;;;;;34.38;70.20;97700.91;4807699;29;20047;-69
2023/07/13 05:09:14;;;;;;;8.13;7.32;;;;;;;34.05;71.02;97700.81;4800508;29;20046;-70
2023/07/13 05:11:44;;;;;;;9.77;7.88;;;;;;;33.89;72.17;97703.72;4818046;29;20054;-70
2023/07/13 05:14:16;;;;;;;8.85;7.75;;;;;;;33.30;73.90;97707.81;4803310;29;20051;-69
2023/07/13 05:16:46;;;;;;;9.40;7.75;;;;;;;33.68;73.17;97706.16;4808131;29;20051;-70
2023/07/13 05:19:15;;;;;;;9.65;7.97;;;;;;;33.91;74.80;97708.81;4803176;29;20374;-70
2023/07/13 05:21:44;;;;;;;13.70;8.55;;;;;;;33.93;71.89;97706.50;4794224;29;20054;-69
2023/07/13 05:24:14;;;;;;;10.10;8.15;;;;;;;33.27;75.16;97710.50;4807454;29;20082;-69
2023/07/13 05:26:53;;;;;;;9.50;8.50;;;;;;;33.51;74.19;97703.84;4808080;29;20050;-70
2023/07/13 05:29:23;;;;;;;10.25;7.65;;;;;;;33.86;75.00;97700.94;4806769;29;20073;-70
2023/07/13 05:31:53;;;;;;;11.68;8.88;;;;;;;33.25;74.14;97707.31;4791612;29;20132;-71
2023/07/13 05:34:23;;;;;;;9.25;8.25;;;;;;;33.23;75.42;97704.97;4799802;29;20054;-69
2023/07/13 05:36:52;;;;;;;7.32;6.63;;;;;;;33.62;75.40;97704.81;4802510;29;20047;-69
2023/07/13 05:39:22;;;;;;;7.75;6.93;;;;;;;33.25;76.13;97712.81;4829711;29;20142;-69
2023/07/13 05:41:52;;;;;;;8.20;7.40;;;;;;;33.41;76.84;97702.53;4831871;29;20050;-69
2023/07/13 05:44:21;;;;;;;6.97;6.25;;;;;;;34.06;75.77;97711.44;4802221;29;20138;-70
2023/07/13 05:46:51;;;;;;;6.43;5.82;;;;;;;33.81;72.37;97713.78;4800054;29;20056;-69
2023/07/13 05:49:21;;;;;;;7.72;5.90;;;;;;;34.01;73.09;97710.94;4825349;29;21035;-69
2023/07/13 05:51:51;;;;;;;7.32;5.97;;;;;;;33.92;72.19;97710.41;4806149;29;20057;-68
2023/07/13 05:54:21;;;;;;;7.00;6.07;;;;;;;34.25;73.03;97710.56;4808492;29;20050;-69
2023/07/13 05:56:51;;;;;;;6.05;5.45;;;;;;;34.24;74.80;97704.25;4818973;29;20042;-68
2023/07/13 05:59:20;;;;;;;8.65;6.00;;;;;;;33.70;72.34;97698.31;4807102;29;20058;-68
2023/07/13 06:01:52;;;;;;;7.35;6.45;;;;;;;33.75;74.50;97703.50;4795960;29;20054;-69
2023/07/13 06:04:21;;;;;;;8.48;6.38;;;;;;;33.58;75.11;97703.97;4793482;29;20061;-69
2023/07/13 06:06:51;;;;;;;6.72;6.05;;;;;;;34.17;74.02;97703.34;4799633;29;20090;-69
2023/07/13 06:09:21;;;;;;;7.63;6.00;;;;;;;33.88;72.30;97704.09;4802161;29;20131;-69
2023/07/13 06:11:50;;;;;;;6.40;5.78;;;;;;;34.03;73.66;97703.13;4798208;29;20046;-69
2023/07/13 06:14:20;;;;;;;7.35;6.40;;;;;;;34.43;72.65;97694.28;4833872;29;20140;-68
2023/07/13 06:16:49;;;;;;;7.15;6.30;;;;;;;34.84;71.11;97695.97;4799408;29;20142;-69
2023/07/13 06:19:19;;;;;;;6.95;6.25;;;;;;;34.80;71.83;97697.09;4800464;29;20046;-69
2023/07/13 06:21:48;;;;;;;7.60;6.38;;;;;;;34.44;71.45;97713.16;4804058;29;20155;-68
2023/07/13 06:24:17;;;;;;;7.32;6.20;;;;;;;33.85;68.69;97713.88;4803530;29;20066;-68
2023/07/13 06:26:46;;;;;;;7.10;6.43;;;;;;;34.08;73.25;97713.81;4806772;29;20527;-67
2023/07/13 06:29:16;;;;;;;7.80;7.05;;;;;;;33.76;72.63;97708.63;4813222;29;20153;-68
2023/07/13 06:31:45;;;;;;;7.43;6.65;;;;;;;33.86;70.81;97709.16;4799662;29;20145;-68
2023/07/13 06:34:15;;;;;;;8.02;6.60;;;;;;;33.67;73.72;97702.59;4799228;29;20046;-68
2023/07/13 06:36:45;;;;;;;9.88;6.50;;;;;;;33.59;73.55;97700.06;4812424;29;20131;-69
2023/07/13 06:39:14;;;;;;;8.25;7.45;;;;;;;33.29;73.57;97708.19;4798109;29;20055;-67
2023/07/13 06:41:45;;;;;;;10.25;7.30;;;;;;;33.33;73.53;97698.84;4831239;29;20432;-69
2023/07/13 06:44:14;;;;;;;8.88;7.95;;;;;;;33.76;71.51;97699.59;4805409;29;20061;-68
2023/07/13 06:46:43;;;;;;;7.85;7.03;;;;;;;33.99;73.24;97707.81;4811991;29;20051;-70
2023/07/13 06:49:14;;;;;;;8.30;7.45;;;;;;;34.08;73.21;97702.81;4797625;29;20391;-68
2023/07/13 06:51:43;;;;;;;9.00;7.55;;;;;;;34.06;71.88;97713.38;4797936;29;20051;-69
2023/07/13 06:54:13;;;;;;;9.10;8.27;;;;;;;34.33;71.47;97689.44;4797782;29;20046;-69
2023/07/13 06:56:43;;;;;;;8.88;8.00;;;;;;;34.20;72.06;97691.63;4801866;29;20058;-68
2023/07/13 06:59:13;;;;;;;8.82;7.57;;;;;;;34.28;72.07;97687.81;4833984;29;20488;-69
2023/07/13 07:01:42;;;;;;;8.00;7.22;;;;;;;34.40;70.78;97700.53;4826152;29;20103;-69
2023/07/13 07:04:12;;;;;;;8.73;7.93;;;;;;;34.50;69.62;97695.16;4797154;29;20151;-71
2023/07/13 07:06:41;;;;;;;8.50;7.70;;;;;;;33.88;72.23;97691.13;4827019;29;20148;-68
2023/07/13 07:09:11;;;;;;;8.70;7.72;;;;;;;34.29;74.64;97689.41;4798451;29;20115;-68
2023/07/13 07:11:42;;;;;;;8.88;7.97;;;;;;;34.35;71.12;97693.38;4796636;29;20050;-68
2023/07/13 07:14:38;;;;;;;9.80;8.02;;;;;;;34.53;70.21;97688.13;4830976;29;20057;-68
2023/07/13 07:17:07;;;;;;;12.10;8.20;;;;;;;34.28;70.83;97687.81;4798330;29;20054;-69
2023/07/13 07:19:37;;;;;;;10.70;8.02;;;;;;;33.73;69.87;97684.63;4827534;29;20398;-71
2023/07/13 07:22:07;;;;;;;9.10;8.30;;;;;;;33.69;71.98;97683.78;4796111;29;20050;-70
2023/07/13 07:24:37;;;;;;;10.93;7.63;;;;;;;33.65;71.43;97685.66;4824897;29;20172;-68
2023/07/13 07:27:06;;;;;;;8.95;8.05;;;;;;;33.96;71.29;97687.31;4800961;29;20113;-68
2023/07/13 07:29:38;;;;;;;11.90;7.95;;;;;;;33.95;72.06;97687.69;4795933;29;20142;-69
2023/07/13 07:32:14;;;;;;;9.15;8.25;;;;;;;33.55;71.98;97682.75;4826571;29;20669;-69
2023/07/13 07:35:05;;;;;;;8.73;7.82;;;;;;;33.74;73.47;97686.22;4827759;29;20154;-70
2023/07/13 07:37:34;;;;;;;13.95;8.55;;;;;;;33.67;73.54;97682.56;4809319;29;20047;-69
2023/07/13 07:40:08;;;;;;;10.13;9.13;;;;;;;33.51;72.51;97677.19;4802507;29;20119;-70
2023/07/13 07:42:41;;;;;;;11.30;8.02;;;;;;;33.71;72.03;97678.72;4816467;29;20475;-69
2023/07/13 07:45:11;;;;;;;9.80;8.48;;;;;;;33.85;72.16;97675.41;4832781;29;20531;-68
2023/07/13 07:47:41;;;;;;;9.95;9.05;;;;;;;34.00;69.42;97670.88;4820661;29;20061;-68
2023/07/13 07:50:10;;;;;;;9.30;8.43;;;;;;;34.25;71.16;97675.63;4815796;29;20628;-69
2023/07/13 07:52:39;;;;;;;9.75;8.73;;;;;;;34.30;72.78;97681.94;4816782;29;20059;-68
2023/07/13 07:55:09;;;;;;;9.20;8.38;;;;;;;34.05;70.57;97670.56;4820978;29;20046;-69
2023/07/13 07:57:42;;;;;;;9.52;8.55;;;;;;;34.13;70.23;97666.75;4818876;29;20547;-68
2023/07/13 08:00:15;;;;;;;9.95;8.77;;;;;;;33.96;71.00;97667.28;4831880;29;20116;-71
2023/07/13 08:02:48;;;;;;;9.38;8.52;;;;;;;34.15;70.89;97667.19;4820791;29;20137;-70
2023/07/13 08:05:20;;;;;;;;;;;;;;;33.91;71.70;97657.41;4815415;29;20128;-68
2023/07/13 08:08:04;;;;;;;9.82;8.77;;;;;;;34.22;70.26;97653.56;4821543;29;20000;-69
2023/07/13 08:10:37;;;;;;;9.55;8.70;;;;;;;34.13;69.85;97659.28;4825608;29;20159;-70
2023/07/13 08:13:06;;;;;;;10.57;9.27;;;;;;;33.90;71.14;97649.56;4821853;29;20065;-69
2023/07/13 08:15:40;;;;;;;11.95;10.60;;;;;;;33.53;72.72;97647.41;4822074;29;20073;-68
2023/07/13 08:18:09;;;;;;;11.82;10.00;;;;;;;33.38;71.30;97645.59;4815121;29;20042;-71
2023/07/13 08:20:39;;;;;;;10.93;9.82;;;;;;;33.49;73.52;97643.81;4822544;29;20053;-68
2023/07/13 08:23:10;;;;;;;11.35;10.25;;;;;;;33.33;74.08;97646.69;4821618;29;20055;-71
2023/07/13 08:25:40;;;;;;;12.13;10.85;;;;;;;33.31;72.49;97640.78;4826371;29;20054;-70
2023/07/13 08:28:10;;;;;;;12.00;10.77;;;;;;;33.19;72.40;97637.44;4816451;29;20479;-71
2023/07/13 08:30:40;;;;;;;14.00;10.48;;;;;;;33.32;72.63;97631.41;4821950;29;20883;-70
2023/07/13 08:33:10;;;;;;;11.52;10.43;;;;;;;33.24;73.17;97626.94;4822433;29;20584;-70
2023/07/13 08:35:40;;;;;;;11.93;10.73;;;;;;;33.16;73.75;97630.72;4802845;29;20088;-70
2023/07/13 08:38:09;;;;;;;11.80;10.55;;;;;;;33.19;73.72;97619.03;4819333;29;20149;-70
2023/07/13 08:40:41;;;;;;;12.57;11.00;;;;;;;33.06;72.87;97620.31;4823275;29;20161;-69
2023/07/13 08:43:19;;;;;;;12.55;11.25;;;;;;;32.90;72.72;97612.22;4821985;29;20062;-70
2023/07/13 08:46:00;;;;;;;11.45;10.23;;;;;;;32.93;73.19;97607.94;4824401;29;20379;-67
2023/07/13 08:48:38;;;;;;;11.35;10.18;;;;;;;32.87;74.59;97607.47;4825257;29;20119;-69
2023/07/13 08:51:24;;;;;;;12.07;10.57;;;;;;;32.92;74.26;97598.94;4808932;29;20053;-69
2023/07/13 08:54:00;;;;;;;14.27;10.50;;;;;;;33.05;74.09;97596.00;4822102;29;20058;-69
2023/07/13 08:56:31;;;;;;;12.07;10.60;;;;;;;33.14;74.87;97588.31;4810756;29;20078;-69
2023/07/13 08:59:11;;;;;;;12.93;10.63;;;;;;;33.34;73.75;97590.63;4823974;29;20129;-70
2023/07/13 09:01:52;;;;;;;12.25;11.02;;;;;;;33.41;73.82;97584.47;4815388;29;20375;-69
2023/07/13 09:04:55;;;;;;;12.10;10.90;;;;;;;33.42;74.48;97580.53;4820436;29;20064;-67
2023/07/13 09:07:45;;;;;;;12.85;11.65;;;;;;;33.51;73.76;97580.28;4822979;29;20054;-68
2023/07/13 09:10:30;;;;;;;12.50;11.23;;;;;;;33.59;74.77;97585.50;4800356;29;20054;-69
2023/07/13 09:13:27;;;;;;;11.63;10.55;;;;;;;33.50;74.30;97573.22;4817453;29;20046;-69
2023/07/13 09:16:00;;;;;;;12.00;11.00;;;;;;;33.57;73.10;97570.56;4833368;29;20129;-67
2023/07/13 09:18:38;;;;;;;11.60;10.40;;;;;;;33.61;73.15;97563.16;4809154;29;20548;-66
2023/07/13 09:21:19;;;;;;;11.20;10.20;;;;;;;33.50;71.41;97564.97;4808378;29;21053;-66
2023/07/13 09:24:19;;;;;;;12.32;10.80;;;;;;;33.64;71.48;97562.41;4825039;29;20074;-67
2023/07/13 09:26:49;;;;;;;10.55;9.55;;;;;;;33.61;72.06;97555.72;4822744;29;20050;-68
2023/07/13 09:29:40;;;;;;;12.40;11.20;;;;;;;33.63;72.85;97550.66;4820408;29;20593;-68
2023/07/13 09:32:12;;;;;;;14.05;11.48;;;;;;;33.63;71.51;97552.63;4807159;29;20677;-68
2023/07/13 09:34:42;;;;;;;11.70;10.50;;;;;;;33.74;71.12;97548.06;4835939;29;20056;-68
2023/07/13 09:37:12;;;;;;;12.75;11.45;;;;;;;33.63;71.56;97547.91;4822043;29;20042;-68
2023/07/13 09:39:43;;;;;;;13.68;11.30;;;;;;;33.66;72.14;97544.44;4839343;29;20179;-68
2023/07/13 09:42:22;;;;;;;14.90;11.25;;;;;;;33.55;72.40;97540.72;4830108;29;20062;-69
2023/07/13 09:44:56;;;;;;;12.88;11.57;;;;;;;33.38;72.16;97530.28;4813429;29;20530;-69
2023/07/13 09:47:29;;;;;;;12.52;11.32;;;;;;;33.48;71.79;97534.34;4802480;29;20608;-68
2023/07/13 09:50:04;;;;;;;11.60;10.50;;;;;;;33.31;70.38;97520.00;4800900;29;20047;-69
2023/07/13 09:52:48;;;;;;;11.52;10.43;;;;;;;33.38;69.89;97519.28;4806904;29;20063;-67
2023/07/13 09:55:39;;;;;;;12.32;11.13;;;;;;;33.48;71.39;97518.66;4800357;29;20051;-68
2023/07/13 09:58:19;;;;;;;12.38;11.18;;;;;;;33.39;71.82;97518.13;4793870;29;20260;-69
2023/07/13 10:01:04;;;;;;;11.73;10.52;;;;;;;33.39;71.82;97523.63;4801644;29;20055;-66
2023/07/13 10:03:39;;;;;;;12.07;10.52;;;;;;;33.48;71.44;97518.66;4800118;29;20145;-67
2023/07/13 10:06:16;;;;;;;10.27;9.32;;;;;;;33.58;70.49;97526.25;4827361;29;20691;-66
2023/07/13 10:08:48;;;;;;;11.82;10.63;;;;;;;33.49;72.77;97506.53;4797505;29;20054;-66
2023/07/13 10:11:24;;;;;;;11.10;10.10;;;;;;;33.41;70.16;97505.63;4829299;29;20142;-67
2023/07/13 10:14:02;;;;;;;10.65;9.65;;;;;;;33.46;69.98;97501.75;4817095;29;20078;-68
2023/07/13 10:16:35;;;;;;;11.35;10.25;;;;;;;33.36;69.55;97499.69;4796779;29;20066;-66
2023/07/13 10:19:25;;;;;;;10.55;9.55;;;;;;;33.51;68.39;97495.94;4830276;29;20051;-65
2023/07/13 10:22:01;;;;;;;9.93;8.98;;;;;;;33.51;69.82;97497.91;4798099;29;20055;-66
2023/07/13 10:24:37;;;;;;;10.93;9.82;;;;;;;33.47;70.04;97492.34;4796479;29;20783;-66
2023/07/13 10:27:20;;;;;;;11.02;9.93;;;;;;;33.53;70.31;97481.84;4796225;29;20069;-67
2023/07/13 10:30:22;;;;;;;11.45;10.43;;;;;;;33.49;70.90;97476.31;4827024;29;20135;-65
2023/07/13 10:32:53;;;;;;;13.15;10.48;;;;;;;33.48;70.29;97474.72;4798559;29;20062;-66
2023/07/13 10:35:24;;;;;;;12.02;10.77;;;;;;;33.42;69.61;97473.47;4782943;29;20062;-64
2023/07/13 10:38:11;;;;;;;11.20;10.10;;;;;;;33.47;69.53;97475.88;4810329;29;20047;-66
2023/07/13 10:40:58;;;;;;;10.05;9.15;;;;;;;33.53;70.42;97466.16;4795991;29;20051;-67
2023/07/13 10:43:41;;;;;;;10.60;9.70;;;;;;;33.59;70.99;97470.16;4798458;29;20058;-67
2023/07/13 10:46:17;;;;;;;10.25;9.35;;;;;;;33.32;69.36;97468.63;4797940;29;20055;-67
2023/07/13 10:48:52;;;;;;;10.00;9.10;;;;;;;33.25;70.40;97465.78;4799000;29;20801;-66
2023/07/13 10:51:22;;;;;;;8.68;7.88;;;;;;;33.23;67.19;97460.69;4822301;29;20066;-67
2023/07/13 10:54:18;;;;;;;9.57;8.68;;;;;;;33.31;68.74;97461.56;4798096;29;20070;-67
2023/07/13 10:57:20;;;;;;;9.15;8.35;;;;;;;33.41;69.10;97461.69;4786521;29;20054;-67
2023/07/13 11:00:15;;;;;;;9.75;8.85;;;;;;;33.38;68.87;97459.69;4797871;29;20055;-67
2023/07/13 11:03:03;;;;;;;11.95;10.63;;;;;;;33.33;70.45;97457.25;4806043;29;20615;-67
2023/07/13 11:05:34;;;;;;;11.77;10.43;;;;;;;33.30;72.25;97458.03;4801938;29;20082;-65
2023/07/13 11:08:13;;;;;;;11.05;9.77;;;;;;;33.33;69.83;97456.47;4800338;29;20689;-66
2023/07/13 11:10:48;;;;;;;11.15;10.13;;;;;;;33.31;70.49;97456.06;4824874;29;20062;-66
2023/07/13 11:13:47;;;;;;;11.13;10.02;;;;;;;33.38;72.90;97450.66;4807904;29;20066;-67
2023/07/13 11:16:23;;;;;;;10.85;9.88;;;;;;;33.32;70.35;97450.22;4825964;29;20240;-67
2023/07/13 11:19:25;;;;;;;10.98;9.63;;;;;;;33.29;69.03;97450.16;4805151;29;20059;-68
2023/07/13 11:22:12;;;;;;;10.60;9.57;;;;;;;33.15;68.83;97449.97;4802439;29;20135;-67
2023/07/13 11:25:20;;;;;;;10.50;9.50;;;;;;;33.12;69.84;97451.47;4827323;29;20309;-67
2023/07/13 11:28:02;;;;;;;10.35;9.35;;;;;;;33.21;69.46;97453.97;4801261;29;20055;-67
2023/07/13 11:30:37;;;;;;;14.93;10.30;;;;;;;33.15;70.22;97448.00;4825585;29;20082;-67
2023/07/13 11:33:13;;;;;;;10.38;9.38;;;;;;;33.16;68.70;97448.78;4806518;29;20059;-68
2023/07/13 11:35:58;;;;;;;10.60;9.57;;;;;;;33.10;69.63;97439.28;4799201;29;20051;-67
2023/07/13 11:38:31;;;;;;;10.43;9.50;;;;;;;33.12;69.00;97435.00;4797616;29;20135;-67
2023/07/13 11:41:05;;;;;;;12.25;10.95;;;;;;;33.15;70.36;97437.00;4816798;29;20078;-67
2023/07/13 11:43:34;;;;;;;12.32;11.02;;;;;;;33.14;70.54;97440.13;4817844;29;20137;-69
2023/07/13 11:46:21;;;;;;;12.60;11.30;;;;;;;33.08;71.23;97449.81;4819095;29;20441;-68
2023/07/13 11:48:52;;;;;;;12.00;10.80;;;;;;;33.06;71.80;97450.19;4814576;29;20057;-67
2023/07/13 11:51:32;;;;;;;12.48;11.15;;;;;;;33.09;72.24;97452.22;4803738;29;20070;-67